Terminal Aerodrome Forecast
Issued by NWS

Home | Current Version | Previous Version | Text Only | Print | Product List | Glossary On
Versions: 1 2 3 4 5 6 7 8 9 10 11 12 13 14 15 16 17 18 19 20 21 22 23 24 25 26 27 28 29 30
000
FTUS41 KBUF 310900 AAB
TAFIAG
TAF AMD
KIAG 310921Z 3109/0106 20005KT P6SM SCT040 BKN110
     FM311000 20005KT P6SM VCTS BKN050CB BKN110
     FM311200 20006KT 6SM -TSRA BKN040CB OVC150
     FM311300 23009KT P6SM BKN035 BKN150
     FM010300 19006KT P6SM FEW060=

USA.gov is the U.S. government's official web portal to all federal, state and local government web resources and services.